This demonstration page uses our WeatherBlox Daily Observations layout. Learn more.

39.29038, -76.61219

Hourly Observations for January 28, 2019

Temp ( °F °C ) Dew Point ( °F °C ) Humidity (%) Winds ( mph kmh ) Pressure ( in mb ) Visibility ( mi km ) Precip ( " mm )
12:54 am 00:54 undefined 38 3.3 16 -8.9 41 41 undefined N/A 30 1016 N/A 0 0
1:54 am 01:54 undefined 37 2.8 14 -10 39 39 undefined N/A 30.03 1017 N/A 0 0
2:54 am 02:54 undefined 36 2.2 11 -11.7 35 35 undefined N/A 30.03 1017 N/A 0 0
3:54 am 03:54 undefined 34 1.1 11 -11.7 38 38 undefined N/A 30.03 1017 N/A 0 0
4:54 am 04:54 undefined 32 0 10 -12.2 40 40 undefined N/A 30.03 1017 N/A 0 0
5:54 am 05:54 undefined 31 -0.6 10 -12.2 42 42 undefined N/A 30 1016 N/A 0 0
6:54 am 06:54 undefined 29 -1.7 10 -12.2 45 45 undefined N/A 30.03 1017 N/A 0 0
7:54 am 07:54 undefined 29 -1.7 9 -12.8 43 43 undefined N/A 30.12 1020 N/A 0 0
8:54 am 08:54 undefined 29 -1.7 7 -13.9 39 39 undefined N/A 30.09 1019 N/A 0 0
9:54 am 09:54 undefined 29 -1.7 4 -15.6 34 34 undefined N/A 30.12 1020 N/A 0 0
10:54 am 10:54 undefined 32 0 3 -16.1 29 29 undefined N/A 30.15 1021 N/A 0 0
11:54 am 11:54 undefined 32 0 4 -15.6 30 30 undefined N/A 30.09 1019 N/A 0 0
12:54 pm 12:54 undefined 34 1.1 7 -13.9 32 32 undefined N/A 30.12 1020 N/A 0 0
1:54 pm 13:54 undefined 35 1.7 8 -13.3 32 32 undefined N/A 30.09 1019 N/A 0 0
2:54 pm 14:54 undefined 36 2.2 9 -12.8 32 32 undefined N/A 30 1016 N/A 0 0
3:54 pm 15:54 undefined 34 1.1 9 -12.8 35 35 undefined N/A 29.97 1015 N/A 0 0
4:54 pm 16:54 undefined 33 0.6 9 -12.8 36 36 undefined N/A 30 1016 N/A 0 0
5:54 pm 17:54 undefined 32 0 10 -12.2 40 40 undefined N/A 30 1016 N/A 0 0
6:54 pm 18:54 undefined 32 0 10 -12.2 40 40 undefined N/A 30 1016 N/A 0 0
7:54 pm 19:54 undefined 32 0 11 -11.7 41 41 undefined N/A 30 1016 N/A 0 0
8:54 pm 20:54 undefined 31 -0.6 12 -11.1 45 45 undefined N/A 30.03 1017 N/A 0 0
9:54 pm 21:54 undefined 31 -0.6 12 -11.1 45 45 undefined N/A 30 1016 N/A 0 0
10:54 pm 22:54 undefined 30 -1.1 15 -9.4 54 54 undefined N/A 30 1016 N/A 0 0
11:54 pm 23:54 undefined 30 -1.1 16 -8.9 56 56 undefined N/A 30 1016 N/A 0 0

Powered by AerisWeather